sensor_id;sensor_type;location;lat;lon;timestamp;temperature;humidity
11284;DHT22;5698;47.332;11.180;2023-06-04T00:02:15;10.20;99.90
11284;DHT22;5698;47.332;11.180;2023-06-04T00:04:42;10.20;99.90
11284;DHT22;5698;47.332;11.180;2023-06-04T00:07:09;10.30;99.90
11284;DHT22;5698;47.332;11.180;2023-06-04T00:09:36;10.40;99.90
11284;DHT22;5698;47.332;11.180;2023-06-04T00:12:05;10.50;99.90
11284;DHT22;5698;47.332;11.180;2023-06-04T00:14:32;10.50;99.90
11284;DHT22;5698;47.332;11.180;2023-06-04T00:16:59;10.50;99.90
11284;DHT22;5698;47.332;11.180;2023-06-04T00:19:26;10.30;99.90
11284;DHT22;5698;47.332;11.180;2023-06-04T00:21:54;10.30;99.90
11284;DHT22;5698;47.332;11.180;2023-06-04T00:24:21;10.20;99.90
11284;DHT22;5698;47.332;11.180;2023-06-04T00:26:48;10.20;99.90
11284;DHT22;5698;47.332;11.180;2023-06-04T00:29:16;10.20;99.90
11284;DHT22;5698;47.332;11.180;2023-06-04T00:31:43;10.10;99.90
11284;DHT22;5698;47.332;11.180;2023-06-04T00:34:10;10.10;99.90
11284;DHT22;5698;47.332;11.180;2023-06-04T00:36:37;10.10;99.90
11284;DHT22;5698;47.332;11.180;2023-06-04T00:39:04;10.10;99.90
11284;DHT22;5698;47.332;11.180;2023-06-04T00:41:31;10.00;99.90
11284;DHT22;5698;47.332;11.180;2023-06-04T00:43:58;10.00;99.90
11284;DHT22;5698;47.332;11.180;2023-06-04T00:46:29;10.00;99.90
11284;DHT22;5698;47.332;11.180;2023-06-04T00:48:56;10.00;99.90
11284;DHT22;5698;47.332;11.180;2023-06-04T00:51:24;10.00;99.90
11284;DHT22;5698;47.332;11.180;2023-06-04T00:53:52;10.00;99.90
11284;DHT22;5698;47.332;11.180;2023-06-04T00:56:19;9.90;99.90
11284;DHT22;5698;47.332;11.180;2023-06-04T00:58:46;9.80;99.90
11284;DHT22;5698;47.332;11.180;2023-06-04T01:01:18;9.70;99.90
11284;DHT22;5698;47.332;11.180;2023-06-04T01:03:51;9.70;99.90
11284;DHT22;5698;47.332;11.180;2023-06-04T01:06:25;9.70;99.90
11284;DHT22;5698;47.332;11.180;2023-06-04T01:08:55;9.70;99.90
11284;DHT22;5698;47.332;11.180;2023-06-04T01:11:31;9.70;99.90
11284;DHT22;5698;47.332;11.180;2023-06-04T01:14:00;9.70;99.90
11284;DHT22;5698;47.332;11.180;2023-06-04T01:16:29;9.70;99.90
11284;DHT22;5698;47.332;11.180;2023-06-04T01:19:01;9.60;99.90
11284;DHT22;5698;47.332;11.180;2023-06-04T01:21:34;9.60;99.90
11284;DHT22;5698;47.332;11.180;2023-06-04T01:24:05;9.60;99.90
11284;DHT22;5698;47.332;11.180;2023-06-04T01:26:32;9.50;99.90
11284;DHT22;5698;47.332;11.180;2023-06-04T01:29:00;9.40;99.90
11284;DHT22;5698;47.332;11.180;2023-06-04T01:31:28;9.40;99.90
11284;DHT22;5698;47.332;11.180;2023-06-04T01:33:59;9.40;99.90
11284;DHT22;5698;47.332;11.180;2023-06-04T01:36:27;9.40;99.90
11284;DHT22;5698;47.332;11.180;2023-06-04T01:38:54;9.40;99.90
11284;DHT22;5698;47.332;11.180;2023-06-04T01:41:21;9.40;99.90
11284;DHT22;5698;47.332;11.180;2023-06-04T01:43:48;9.30;99.90
11284;DHT22;5698;47.332;11.180;2023-06-04T01:46:15;9.30;99.90
11284;DHT22;5698;47.332;11.180;2023-06-04T01:48:42;9.30;99.90
11284;DHT22;5698;47.332;11.180;2023-06-04T01:51:10;9.30;99.90
11284;DHT22;5698;47.332;11.180;2023-06-04T01:53:37;9.30;99.90
11284;DHT22;5698;47.332;11.180;2023-06-04T01:56:04;9.30;99.90
11284;DHT22;5698;47.332;11.180;2023-06-04T01:58:33;9.20;99.90
11284;DHT22;5698;47.332;11.180;2023-06-04T02:01:00;9.20;99.90
11284;DHT22;5698;47.332;11.180;2023-06-04T02:03:28;9.20;99.90
11284;DHT22;5698;47.332;11.180;2023-06-04T02:06:02;9.20;99.90
11284;DHT22;5698;47.332;11.180;2023-06-04T02:08:31;9.20;99.90
11284;DHT22;5698;47.332;11.180;2023-06-04T02:10:59;9.20;99.90
11284;DHT22;5698;47.332;11.180;2023-06-04T02:13:26;9.20;99.90
11284;DHT22;5698;47.332;11.180;2023-06-04T02:15:53;9.30;99.90
11284;DHT22;5698;47.332;11.180;2023-06-04T02:18:20;9.30;99.90
11284;DHT22;5698;47.332;11.180;2023-06-04T02:20:48;9.30;99.90
11284;DHT22;5698;47.332;11.180;2023-06-04T02:23:17;9.20;99.90
11284;DHT22;5698;47.332;11.180;2023-06-04T02:25:46;9.10;99.90
11284;DHT22;5698;47.332;11.180;2023-06-04T02:28:15;9.10;99.90
11284;DHT22;5698;47.332;11.180;2023-06-04T02:30:43;9.10;99.90
11284;DHT22;5698;47.332;11.180;2023-06-04T02:33:10;9.10;99.90
11284;DHT22;5698;47.332;11.180;2023-06-04T02:35:37;9.00;99.90
11284;DHT22;5698;47.332;11.180;2023-06-04T02:38:04;9.00;99.90
11284;DHT22;5698;47.332;11.180;2023-06-04T02:40:31;9.00;99.90
11284;DHT22;5698;47.332;11.180;2023-06-04T02:43:00;9.00;99.90
11284;DHT22;5698;47.332;11.180;2023-06-04T02:45:27;9.10;99.90
11284;DHT22;5698;47.332;11.180;2023-06-04T02:47:54;9.00;99.90
11284;DHT22;5698;47.332;11.180;2023-06-04T02:50:21;9.00;99.90
11284;DHT22;5698;47.332;11.180;2023-06-04T02:52:48;9.00;99.90
11284;DHT22;5698;47.332;11.180;2023-06-04T02:55:15;9.00;99.90
11284;DHT22;5698;47.332;11.180;2023-06-04T02:57:42;9.00;99.90
11284;DHT22;5698;47.332;11.180;2023-06-04T03:00:12;9.00;99.90
11284;DHT22;5698;47.332;11.180;2023-06-04T03:02:40;8.90;99.90
11284;DHT22;5698;47.332;11.180;2023-06-04T03:05:09;8.80;99.90
11284;DHT22;5698;47.332;11.180;2023-06-04T03:07:39;8.80;99.90
11284;DHT22;5698;47.332;11.180;2023-06-04T03:10:07;8.80;99.90
11284;DHT22;5698;47.332;11.180;2023-06-04T03:12:34;8.80;99.90
11284;DHT22;5698;47.332;11.180;2023-06-04T03:15:01;8.70;99.90
11284;DHT22;5698;47.332;11.180;2023-06-04T03:17:30;8.70;99.90
11284;DHT22;5698;47.332;11.180;2023-06-04T03:19:58;8.70;99.90
11284;DHT22;5698;47.332;11.180;2023-06-04T03:22:25;8.70;99.90
11284;DHT22;5698;47.332;11.180;2023-06-04T03:24:52;8.70;99.90
11284;DHT22;5698;47.332;11.180;2023-06-04T03:27:19;8.70;99.90
11284;DHT22;5698;47.332;11.180;2023-06-04T03:29:46;8.60;99.90
11284;DHT22;5698;47.332;11.180;2023-06-04T03:32:13;8.60;99.90
11284;DHT22;5698;47.332;11.180;2023-06-04T03:34:43;8.60;99.90
11284;DHT22;5698;47.332;11.180;2023-06-04T03:37:10;8.50;99.90
11284;DHT22;5698;47.332;11.180;2023-06-04T03:39:37;8.50;99.90
11284;DHT22;5698;47.332;11.180;2023-06-04T03:42:04;8.50;99.90
11284;DHT22;5698;47.332;11.180;2023-06-04T03:44:31;8.50;99.90
11284;DHT22;5698;47.332;11.180;2023-06-04T03:46:58;8.50;99.90
11284;DHT22;5698;47.332;11.180;2023-06-04T03:49:25;8.50;99.90
11284;DHT22;5698;47.332;11.180;2023-06-04T03:51:54;8.50;99.90
11284;DHT22;5698;47.332;11.180;2023-06-04T03:54:21;8.50;99.90
11284;DHT22;5698;47.332;11.180;2023-06-04T03:56:48;8.50;99.90
11284;DHT22;5698;47.332;11.180;2023-06-04T03:59:15;8.50;99.90
11284;DHT22;5698;47.332;11.180;2023-06-04T04:01:43;8.50;99.90
11284;DHT22;5698;47.332;11.180;2023-06-04T04:04:10;8.60;99.90
11284;DHT22;5698;47.332;11.180;2023-06-04T04:06:37;8.50;99.90
11284;DHT22;5698;47.332;11.180;2023-06-04T04:09:05;8.60;99.90
11284;DHT22;5698;47.332;11.180;2023-06-04T04:11:33;8.60;99.90
11284;DHT22;5698;47.332;11.180;2023-06-04T04:14:00;8.60;99.90
11284;DHT22;5698;47.332;11.180;2023-06-04T04:16:27;8.60;99.90
11284;DHT22;5698;47.332;11.180;2023-06-04T04:18:54;8.70;99.90
11284;DHT22;5698;47.332;11.180;2023-06-04T04:21:21;8.70;99.90
11284;DHT22;5698;47.332;11.180;2023-06-04T04:23:49;8.80;99.90
11284;DHT22;5698;47.332;11.180;2023-06-04T04:26:18;8.80;99.90
11284;DHT22;5698;47.332;11.180;2023-06-04T04:28:45;8.90;99.90
11284;DHT22;5698;47.332;11.180;2023-06-04T04:31:12;9.00;99.90
11284;DHT22;5698;47.332;11.180;2023-06-04T04:33:40;9.00;99.90
11284;DHT22;5698;47.332;11.180;2023-06-04T04:36:07;9.10;99.90
11284;DHT22;5698;47.332;11.180;2023-06-04T04:38:38;9.20;99.90
11284;DHT22;5698;47.332;11.180;2023-06-04T04:41:06;9.20;99.90
11284;DHT22;5698;47.332;11.180;2023-06-04T04:43:36;9.30;99.90
11284;DHT22;5698;47.332;11.180;2023-06-04T04:46:05;9.30;99.90
11284;DHT22;5698;47.332;11.180;2023-06-04T04:48:32;9.40;99.90
11284;DHT22;5698;47.332;11.180;2023-06-04T04:50:59;9.40;99.90
11284;DHT22;5698;47.332;11.180;2023-06-04T04:53:26;9.50;99.90
11284;DHT22;5698;47.332;11.180;2023-06-04T04:55:53;9.60;99.90
11284;DHT22;5698;47.332;11.180;2023-06-04T04:58:20;9.70;99.90
11284;DHT22;5698;47.332;11.180;2023-06-04T05:00:49;9.80;99.90
11284;DHT22;5698;47.332;11.180;2023-06-04T05:03:17;9.80;99.90
11284;DHT22;5698;47.332;11.180;2023-06-04T05:05:44;9.90;99.90
11284;DHT22;5698;47.332;11.180;2023-06-04T05:08:11;10.00;99.90
11284;DHT22;5698;47.332;11.180;2023-06-04T05:10:38;10.10;99.90
11284;DHT22;5698;47.332;11.180;2023-06-04T05:13:05;10.20;99.90
11284;DHT22;5698;47.332;11.180;2023-06-04T05:15:32;10.30;99.90
11284;DHT22;5698;47.332;11.180;2023-06-04T05:18:01;10.50;99.90
11284;DHT22;5698;47.332;11.180;2023-06-04T05:20:29;10.60;99.90
11284;DHT22;5698;47.332;11.180;2023-06-04T05:22:56;10.60;99.90
11284;DHT22;5698;47.332;11.180;2023-06-04T05:25:23;10.70;99.90
11284;DHT22;5698;47.332;11.180;2023-06-04T05:27:52;10.80;99.90
11284;DHT22;5698;47.332;11.180;2023-06-04T05:30:20;10.90;99.90
11284;DHT22;5698;47.332;11.180;2023-06-04T05:32:47;11.00;99.90
11284;DHT22;5698;47.332;11.180;2023-06-04T05:35:17;11.10;99.90
11284;DHT22;5698;47.332;11.180;2023-06-04T05:37:44;11.20;99.90
11284;DHT22;5698;47.332;11.180;2023-06-04T05:40:19;11.30;99.90
11284;DHT22;5698;47.332;11.180;2023-06-04T05:42:46;11.40;99.90
11284;DHT22;5698;47.332;11.180;2023-06-04T05:45:13;11.50;99.90
11284;DHT22;5698;47.332;11.180;2023-06-04T05:47:40;11.70;99.90
11284;DHT22;5698;47.332;11.180;2023-06-04T05:50:08;11.90;99.90
11284;DHT22;5698;47.332;11.180;2023-06-04T05:52:36;12.00;99.90
11284;DHT22;5698;47.332;11.180;2023-06-04T05:55:04;12.20;99.90
11284;DHT22;5698;47.332;11.180;2023-06-04T05:57:33;12.20;99.90
11284;DHT22;5698;47.332;11.180;2023-06-04T06:00:00;12.30;99.90
11284;DHT22;5698;47.332;11.180;2023-06-04T06:02:27;12.50;99.90
11284;DHT22;5698;47.332;11.180;2023-06-04T06:04:54;12.50;99.90
11284;DHT22;5698;47.332;11.180;2023-06-04T06:07:21;12.60;99.90
11284;DHT22;5698;47.332;11.180;2023-06-04T06:09:50;12.70;99.90
11284;DHT22;5698;47.332;11.180;2023-06-04T06:12:17;12.70;99.90
11284;DHT22;5698;47.332;11.180;2023-06-04T06:14:44;12.70;99.90
11284;DHT22;5698;47.332;11.180;2023-06-04T06:17:11;12.70;99.90
11284;DHT22;5698;47.332;11.180;2023-06-04T06:19:38;12.70;99.90
11284;DHT22;5698;47.332;11.180;2023-06-04T06:22:06;12.80;99.90
11284;DHT22;5698;47.332;11.180;2023-06-04T06:24:32;12.90;99.90
11284;DHT22;5698;47.332;11.180;2023-06-04T06:27:01;13.00;99.90
11284;DHT22;5698;47.332;11.180;2023-06-04T06:29:28;13.20;99.90
11284;DHT22;5698;47.332;11.180;2023-06-04T06:31:55;13.30;99.90
11284;DHT22;5698;47.332;11.180;2023-06-04T06:34:22;13.40;99.90
11284;DHT22;5698;47.332;11.180;2023-06-04T06:36:50;13.60;99.90
11284;DHT22;5698;47.332;11.180;2023-06-04T06:39:17;13.60;99.90
11284;DHT22;5698;47.332;11.180;2023-06-04T06:41:44;13.70;99.90
11284;DHT22;5698;47.332;11.180;2023-06-04T06:44:13;13.90;99.90
11284;DHT22;5698;47.332;11.180;2023-06-04T06:46:40;14.00;99.90
11284;DHT22;5698;47.332;11.180;2023-06-04T06:49:07;14.20;99.90
11284;DHT22;5698;47.332;11.180;2023-06-04T06:51:34;14.20;99.90
11284;DHT22;5698;47.332;11.180;2023-06-04T06:54:01;14.30;99.90
11284;DHT22;5698;47.332;11.180;2023-06-04T06:56:28;14.30;99.90
11284;DHT22;5698;47.332;11.180;2023-06-04T06:58:56;14.40;99.90
11284;DHT22;5698;47.332;11.180;2023-06-04T07:01:24;14.40;99.90
11284;DHT22;5698;47.332;11.180;2023-06-04T07:03:52;14.60;99.90
11284;DHT22;5698;47.332;11.180;2023-06-04T07:06:19;14.60;99.90
11284;DHT22;5698;47.332;11.180;2023-06-04T07:08:46;14.80;99.90
11284;DHT22;5698;47.332;11.180;2023-06-04T07:11:15;14.90;99.90
11284;DHT22;5698;47.332;11.180;2023-06-04T07:13:42;14.90;99.90
11284;DHT22;5698;47.332;11.180;2023-06-04T07:16:09;14.90;99.90
11284;DHT22;5698;47.332;11.180;2023-06-04T07:18:37;15.00;99.90
11284;DHT22;5698;47.332;11.180;2023-06-04T07:21:04;15.10;99.90
11284;DHT22;5698;47.332;11.180;2023-06-04T07:23:31;15.20;99.90
11284;DHT22;5698;47.332;11.180;2023-06-04T07:25:58;15.40;99.90
11284;DHT22;5698;47.332;11.180;2023-06-04T07:28:25;15.50;99.90
11284;DHT22;5698;47.332;11.180;2023-06-04T07:30:52;15.60;99.90
11284;DHT22;5698;47.332;11.180;2023-06-04T07:33:19;15.60;99.90
11284;DHT22;5698;47.332;11.180;2023-06-04T07:35:48;15.60;99.90
11284;DHT22;5698;47.332;11.180;2023-06-04T07:38:15;15.70;99.90
11284;DHT22;5698;47.332;11.180;2023-06-04T07:40:43;15.70;99.90
11284;DHT22;5698;47.332;11.180;2023-06-04T07:43:11;15.80;99.90
11284;DHT22;5698;47.332;11.180;2023-06-04T07:45:38;15.90;99.90
11284;DHT22;5698;47.332;11.180;2023-06-04T07:48:05;16.00;99.90
11284;DHT22;5698;47.332;11.180;2023-06-04T07:50:32;16.00;99.90
11284;DHT22;5698;47.332;11.180;2023-06-04T07:53:01;16.00;99.90
11284;DHT22;5698;47.332;11.180;2023-06-04T07:55:28;16.10;99.90
11284;DHT22;5698;47.332;11.180;2023-06-04T07:57:55;16.20;99.90
11284;DHT22;5698;47.332;11.180;2023-06-04T08:00:22;16.20;99.90
11284;DHT22;5698;47.332;11.180;2023-06-04T08:02:49;16.20;99.90
11284;DHT22;5698;47.332;11.180;2023-06-04T08:05:18;16.20;99.90
11284;DHT22;5698;47.332;11.180;2023-06-04T08:07:46;16.10;99.90
11284;DHT22;5698;47.332;11.180;2023-06-04T08:10:14;16.30;99.90
11284;DHT22;5698;47.332;11.180;2023-06-04T08:12:41;16.40;99.90
11284;DHT22;5698;47.332;11.180;2023-06-04T08:15:09;16.50;99.90
11284;DHT22;5698;47.332;11.180;2023-06-04T08:17:36;16.60;99.90
11284;DHT22;5698;47.332;11.180;2023-06-04T08:20:04;16.80;99.90
11284;DHT22;5698;47.332;11.180;2023-06-04T08:22:34;17.10;99.90
11284;DHT22;5698;47.332;11.180;2023-06-04T08:25:01;17.30;99.90
11284;DHT22;5698;47.332;11.180;2023-06-04T08:27:30;17.50;99.90
11284;DHT22;5698;47.332;11.180;2023-06-04T08:29:57;17.80;99.90
11284;DHT22;5698;47.332;11.180;2023-06-04T08:32:24;17.80;99.90
11284;DHT22;5698;47.332;11.180;2023-06-04T08:34:51;18.00;99.90
11284;DHT22;5698;47.332;11.180;2023-06-04T08:37:18;18.10;99.90
11284;DHT22;5698;47.332;11.180;2023-06-04T08:39:45;18.10;99.90
11284;DHT22;5698;47.332;11.180;2023-06-04T08:42:18;18.20;99.90
11284;DHT22;5698;47.332;11.180;2023-06-04T08:44:50;18.20;99.90
11284;DHT22;5698;47.332;11.180;2023-06-04T08:47:19;18.20;99.90
11284;DHT22;5698;47.332;11.180;2023-06-04T08:49:49;18.40;99.90
11284;DHT22;5698;47.332;11.180;2023-06-04T08:52:17;18.70;99.90
11284;DHT22;5698;47.332;11.180;2023-06-04T08:54:48;19.00;99.90
11284;DHT22;5698;47.332;11.180;2023-06-04T08:57:17;19.30;99.90
11284;DHT22;5698;47.332;11.180;2023-06-04T08:59:45;19.60;99.90
11284;DHT22;5698;47.332;11.180;2023-06-04T09:02:14;19.70;99.90
11284;DHT22;5698;47.332;11.180;2023-06-04T09:04:42;19.90;99.90
11284;DHT22;5698;47.332;11.180;2023-06-04T09:07:10;20.10;99.90
11284;DHT22;5698;47.332;11.180;2023-06-04T09:09:39;20.10;99.90
11284;DHT22;5698;47.332;11.180;2023-06-04T09:12:10;20.20;99.90
11284;DHT22;5698;47.332;11.180;2023-06-04T09:14:38;20.40;99.90
11284;DHT22;5698;47.332;11.180;2023-06-04T09:17:05;20.50;99.90
11284;DHT22;5698;47.332;11.180;2023-06-04T09:19:33;20.50;99.90
11284;DHT22;5698;47.332;11.180;2023-06-04T09:22:00;20.50;99.90
11284;DHT22;5698;47.332;11.180;2023-06-04T09:24:39;20.70;99.90
11284;DHT22;5698;47.332;11.180;2023-06-04T09:27:10;20.70;98.80
11284;DHT22;5698;47.332;11.180;2023-06-04T09:29:38;20.50;99.90
11284;DHT22;5698;47.332;11.180;2023-06-04T09:32:05;20.20;99.90
11284;DHT22;5698;47.332;11.180;2023-06-04T09:34:33;19.80;99.90
11284;DHT22;5698;47.332;11.180;2023-06-04T09:37:02;19.70;99.90
11284;DHT22;5698;47.332;11.180;2023-06-04T09:39:29;19.70;99.90
11284;DHT22;5698;47.332;11.180;2023-06-04T09:42:00;19.60;99.90
11284;DHT22;5698;47.332;11.180;2023-06-04T09:44:28;19.60;99.90
11284;DHT22;5698;47.332;11.180;2023-06-04T09:46:55;19.70;99.90
11284;DHT22;5698;47.332;11.180;2023-06-04T09:49:22;19.60;99.90
11284;DHT22;5698;47.332;11.180;2023-06-04T09:51:51;19.60;99.90
11284;DHT22;5698;47.332;11.180;2023-06-04T09:54:18;19.80;99.90
11284;DHT22;5698;47.332;11.180;2023-06-04T09:56:45;20.10;99.90
11284;DHT22;5698;47.332;11.180;2023-06-04T09:59:13;20.40;99.90
11284;DHT22;5698;47.332;11.180;2023-06-04T10:01:41;20.50;98.50
11284;DHT22;5698;47.332;11.180;2023-06-04T10:04:09;20.50;98.50
11284;DHT22;5698;47.332;11.180;2023-06-04T10:06:39;20.60;99.40
11284;DHT22;5698;47.332;11.180;2023-06-04T10:09:08;20.60;97.80
11284;DHT22;5698;47.332;11.180;2023-06-04T10:11:39;20.50;95.90
11284;DHT22;5698;47.332;11.180;2023-06-04T10:14:11;20.30;96.40
11284;DHT22;5698;47.332;11.180;2023-06-04T10:16:40;19.90;98.10
11284;DHT22;5698;47.332;11.180;2023-06-04T10:19:08;19.80;99.40
11284;DHT22;5698;47.332;11.180;2023-06-04T10:21:35;19.80;98.90
11284;DHT22;5698;47.332;11.180;2023-06-04T10:24:03;19.90;98.50
11284;DHT22;5698;47.332;11.180;2023-06-04T10:26:34;19.80;98.70
11284;DHT22;5698;47.332;11.180;2023-06-04T10:29:02;19.80;97.60
11284;DHT22;5698;47.332;11.180;2023-06-04T10:31:29;19.80;97.60
11284;DHT22;5698;47.332;11.180;2023-06-04T10:33:56;19.70;97.20
11284;DHT22;5698;47.332;11.180;2023-06-04T10:36:24;19.80;97.50
11284;DHT22;5698;47.332;11.180;2023-06-04T10:38:52;19.80;96.50
11284;DHT22;5698;47.332;11.180;2023-06-04T10:41:20;19.90;96.10
11284;DHT22;5698;47.332;11.180;2023-06-04T10:43:51;20.10;97.30
11284;DHT22;5698;47.332;11.180;2023-06-04T10:46:19;20.40;95.00
11284;DHT22;5698;47.332;11.180;2023-06-04T10:48:48;20.70;94.00
11284;DHT22;5698;47.332;11.180;2023-06-04T10:51:16;21.00;94.10
11284;DHT22;5698;47.332;11.180;2023-06-04T10:53:43;21.40;92.90
11284;DHT22;5698;47.332;11.180;2023-06-04T10:56:10;21.40;90.60
11284;DHT22;5698;47.332;11.180;2023-06-04T10:58:37;21.50;90.70
11284;DHT22;5698;47.332;11.180;2023-06-04T11:01:06;21.70;90.70
11284;DHT22;5698;47.332;11.180;2023-06-04T11:03:37;21.80;91.70
11284;DHT22;5698;47.332;11.180;2023-06-04T11:06:15;21.90;90.00
11284;DHT22;5698;47.332;11.180;2023-06-04T11:08:43;22.00;88.20
11284;DHT22;5698;47.332;11.180;2023-06-04T11:11:11;22.10;87.80
11284;DHT22;5698;47.332;11.180;2023-06-04T11:13:39;21.90;87.80
11284;DHT22;5698;47.332;11.180;2023-06-04T11:16:15;21.90;90.40
11284;DHT22;5698;47.332;11.180;2023-06-04T11:18:43;21.90;86.20
11284;DHT22;5698;47.332;11.180;2023-06-04T11:21:11;21.80;88.60
11284;DHT22;5698;47.332;11.180;2023-06-04T11:23:40;21.80;87.40
11284;DHT22;5698;47.332;11.180;2023-06-04T11:26:08;21.70;88.40
11284;DHT22;5698;47.332;11.180;2023-06-04T11:28:35;21.80;89.20
11284;DHT22;5698;47.332;11.180;2023-06-04T11:31:03;21.90;89.20
11284;DHT22;5698;47.332;11.180;2023-06-04T11:33:43;21.90;88.60
11284;DHT22;5698;47.332;11.180;2023-06-04T11:36:10;22.00;89.30
11284;DHT22;5698;47.332;11.180;2023-06-04T11:38:37;21.90;87.50
11284;DHT22;5698;47.332;11.180;2023-06-04T11:41:04;21.90;89.00
11284;DHT22;5698;47.332;11.180;2023-06-04T11:43:32;21.80;89.00
11284;DHT22;5698;47.332;11.180;2023-06-04T11:46:06;21.80;90.00
11284;DHT22;5698;47.332;11.180;2023-06-04T11:48:33;22.00;89.80
11284;DHT22;5698;47.332;11.180;2023-06-04T11:51:06;22.20;87.40
11284;DHT22;5698;47.332;11.180;2023-06-04T11:53:36;22.30;88.80
11284;DHT22;5698;47.332;11.180;2023-06-04T11:56:04;22.20;89.60
11284;DHT22;5698;47.332;11.180;2023-06-04T11:58:32;22.20;88.90
11284;DHT22;5698;47.332;11.180;2023-06-04T12:01:00;22.20;88.60
11284;DHT22;5698;47.332;11.180;2023-06-04T12:03:37;22.00;85.60
11284;DHT22;5698;47.332;11.180;2023-06-04T12:06:16;21.80;87.00
11284;DHT22;5698;47.332;11.180;2023-06-04T12:08:51;21.60;87.80
11284;DHT22;5698;47.332;11.180;2023-06-04T12:11:26;21.40;85.30
11284;DHT22;5698;47.332;11.180;2023-06-04T12:13:54;21.10;86.10
11284;DHT22;5698;47.332;11.180;2023-06-04T12:16:21;20.80;86.30
11284;DHT22;5698;47.332;11.180;2023-06-04T12:18:48;20.40;85.70
11284;DHT22;5698;47.332;11.180;2023-06-04T12:21:23;20.20;85.70
11284;DHT22;5698;47.332;11.180;2023-06-04T12:23:53;20.10;86.40
11284;DHT22;5698;47.332;11.180;2023-06-04T12:26:22;20.10;87.40
11284;DHT22;5698;47.332;11.180;2023-06-04T12:29:02;20.10;85.30
11284;DHT22;5698;47.332;11.180;2023-06-04T12:31:29;19.90;86.20
11284;DHT22;5698;47.332;11.180;2023-06-04T12:33:59;19.80;86.10
11284;DHT22;5698;47.332;11.180;2023-06-04T12:36:28;19.80;86.40
11284;DHT22;5698;47.332;11.180;2023-06-04T12:38:58;19.90;86.80
11284;DHT22;5698;47.332;11.180;2023-06-04T12:41:26;19.90;87.30
11284;DHT22;5698;47.332;11.180;2023-06-04T12:43:53;19.90;87.50
11284;DHT22;5698;47.332;11.180;2023-06-04T12:46:20;19.80;86.70
11284;DHT22;5698;47.332;11.180;2023-06-04T12:48:48;19.80;89.90
11284;DHT22;5698;47.332;11.180;2023-06-04T12:51:15;19.90;89.90
11284;DHT22;5698;47.332;11.180;2023-06-04T12:53:43;19.70;86.70
11284;DHT22;5698;47.332;11.180;2023-06-04T12:56:11;19.90;88.30
11284;DHT22;5698;47.332;11.180;2023-06-04T12:58:38;20.20;88.20
11284;DHT22;5698;47.332;11.180;2023-06-04T13:01:05;20.20;86.60
11284;DHT22;5698;47.332;11.180;2023-06-04T13:03:32;20.30;85.50
11284;DHT22;5698;47.332;11.180;2023-06-04T13:05:59;20.20;84.90
11284;DHT22;5698;47.332;11.180;2023-06-04T13:08:26;20.00;85.30
11284;DHT22;5698;47.332;11.180;2023-06-04T13:10:55;20.00;87.10
11284;DHT22;5698;47.332;11.180;2023-06-04T13:13:22;20.10;89.10
11284;DHT22;5698;47.332;11.180;2023-06-04T13:15:48;20.30;88.00
11284;DHT22;5698;47.332;11.180;2023-06-04T13:18:16;20.40;89.20
11284;DHT22;5698;47.332;11.180;2023-06-04T13:20:42;20.50;89.10
11284;DHT22;5698;47.332;11.180;2023-06-04T13:23:10;20.50;90.30
11284;DHT22;5698;47.332;11.180;2023-06-04T13:25:38;20.40;90.20
11284;DHT22;5698;47.332;11.180;2023-06-04T13:28:06;20.40;90.40
11284;DHT22;5698;47.332;11.180;2023-06-04T13:30:35;20.20;90.70
11284;DHT22;5698;47.332;11.180;2023-06-04T13:33:02;20.20;90.70
11284;DHT22;5698;47.332;11.180;2023-06-04T13:35:30;20.30;90.50
11284;DHT22;5698;47.332;11.180;2023-06-04T13:37:57;20.30;90.80
11284;DHT22;5698;47.332;11.180;2023-06-04T13:40:24;20.10;90.80
11284;DHT22;5698;47.332;11.180;2023-06-04T13:42:51;20.10;91.10
11284;DHT22;5698;47.332;11.180;2023-06-04T13:45:19;19.90;91.20
11284;DHT22;5698;47.332;11.180;2023-06-04T13:47:46;19.70;91.10
11284;DHT22;5698;47.332;11.180;2023-06-04T13:50:14;19.70;91.00
11284;DHT22;5698;47.332;11.180;2023-06-04T13:52:41;19.70;90.90
11284;DHT22;5698;47.332;11.180;2023-06-04T13:55:09;19.70;90.80
11284;DHT22;5698;47.332;11.180;2023-06-04T13:57:36;19.80;91.40
11284;DHT22;5698;47.332;11.180;2023-06-04T14:00:04;19.80;91.90
11284;DHT22;5698;47.332;11.180;2023-06-04T14:02:33;19.70;92.50
11284;DHT22;5698;47.332;11.180;2023-06-04T14:05:00;19.60;92.10
11284;DHT22;5698;47.332;11.180;2023-06-04T14:07:28;19.40;92.10
11284;DHT22;5698;47.332;11.180;2023-06-04T14:09:55;19.20;92.60
11284;DHT22;5698;47.332;11.180;2023-06-04T14:12:22;19.10;92.50
11284;DHT22;5698;47.332;11.180;2023-06-04T14:14:50;18.70;93.60
11284;DHT22;5698;47.332;11.180;2023-06-04T14:17:17;18.10;94.40
11284;DHT22;5698;47.332;11.180;2023-06-04T14:19:45;17.60;95.40
11284;DHT22;5698;47.332;11.180;2023-06-04T14:22:12;17.20;96.40
11284;DHT22;5698;47.332;11.180;2023-06-04T14:24:40;16.90;98.40
11284;DHT22;5698;47.332;11.180;2023-06-04T14:27:07;16.70;99.30
11284;DHT22;5698;47.332;11.180;2023-06-04T14:29:35;16.50;98.90
11284;DHT22;5698;47.332;11.180;2023-06-04T14:32:03;16.40;99.30
11284;DHT22;5698;47.332;11.180;2023-06-04T14:34:30;16.10;99.80
11284;DHT22;5698;47.332;11.180;2023-06-04T14:36:59;16.00;99.90
11284;DHT22;5698;47.332;11.180;2023-06-04T14:39:27;15.80;99.90
11284;DHT22;5698;47.332;11.180;2023-06-04T14:41:54;15.80;99.90
11284;DHT22;5698;47.332;11.180;2023-06-04T14:44:21;15.70;99.90
11284;DHT22;5698;47.332;11.180;2023-06-04T14:46:49;15.60;99.90
11284;DHT22;5698;47.332;11.180;2023-06-04T14:49:17;15.60;99.90
11284;DHT22;5698;47.332;11.180;2023-06-04T14:51:45;15.30;99.90
11284;DHT22;5698;47.332;11.180;2023-06-04T14:54:14;15.20;99.90
11284;DHT22;5698;47.332;11.180;2023-06-04T14:56:41;15.10;99.90
11284;DHT22;5698;47.332;11.180;2023-06-04T14:59:09;15.10;99.90
11284;DHT22;5698;47.332;11.180;2023-06-04T15:01:38;15.00;99.90
11284;DHT22;5698;47.332;11.180;2023-06-04T15:04:06;15.00;99.90
11284;DHT22;5698;47.332;11.180;2023-06-04T15:06:33;15.00;99.90
11284;DHT22;5698;47.332;11.180;2023-06-04T15:09:00;15.00;99.90
11284;DHT22;5698;47.332;11.180;2023-06-04T15:11:30;14.80;99.90
11284;DHT22;5698;47.332;11.180;2023-06-04T15:13:57;14.60;99.90
11284;DHT22;5698;47.332;11.180;2023-06-04T15:16:24;14.20;99.90
11284;DHT22;5698;47.332;11.180;2023-06-04T15:18:51;14.00;99.90
11284;DHT22;5698;47.332;11.180;2023-06-04T15:21:18;13.80;99.90
11284;DHT22;5698;47.332;11.180;2023-06-04T15:23:45;13.70;99.90
11284;DHT22;5698;47.332;11.180;2023-06-04T15:26:15;13.60;99.90
11284;DHT22;5698;47.332;11.180;2023-06-04T15:28:43;13.60;99.90
11284;DHT22;5698;47.332;11.180;2023-06-04T15:31:10;13.60;99.90
11284;DHT22;5698;47.332;11.180;2023-06-04T15:33:37;13.60;99.90
11284;DHT22;5698;47.332;11.180;2023-06-04T15:36:05;13.50;99.90
11284;DHT22;5698;47.332;11.180;2023-06-04T15:38:32;13.40;99.90
11284;DHT22;5698;47.332;11.180;2023-06-04T15:40:59;13.40;99.90